Neche, North Dakota
Current Conditions -  °F | °C
As of 1:35 PM on Sunday 21 Dec 2014 (Local Time) from K2C8 Reporting Station
Haze Haze  
Wind Chill: 17°   Ceiling: 200
Heat Index: 28°   Visibility: 1.7mi
Dew Point: 28°   Wind: 15mph
Humidity: 100%   Direction: 180°S
Pressure: 29.59"   Gusts: 18mph
Location:  48.99°N, 97.55°W
Report Text: K2C8 211935Z AUTO 18013G16KT 1 3/4SM BR OVC002 M02/M02 A2959 RMK AO2
Loading
Personal Weather Stations






























Interactive Weather Map New forecast layout! Learn more

10-Day Weather Forecast

Advertisements
Track Severe Weather on mobile